Friday, April 25, 2014
02:31 UTC
  |  Log In   |  Register Free
Airport Search:

Mccarley Fld Airport
(U02)

Mccarley Fld Airport Diagram
No Airport Diagram Available

FAA data valid effective April 3, 2014 until May 29, 2014 (unless otherwise noted).

 
 
 
 
 
 
 
 
 
 
 
 
 
 

Current Aviation Weather for Mccarley Fld Airport (U02)

The most recent METAR observation for KPIH was updated at: 0153 UTC
METAR Summary (Translated METAR)
KPIH
250153Z 22010KT 10SM BKN095 12/02 A2992 RMK AO2 SLP114 T01220017
KIDA
(42.9 nm NE from KPIH)
250153Z AUTO 19013KT 10SM CLR 12/02 A2989 RMK AO2 PK WND 21026/0056 SLP116 T01170017
TAF Summary (Translated TAF)
KPIH
242023Z 2420/2518 22010KT P6SM VCSH SCT030 BKN060 FM250200 22010KT P6SM VCSH BKN050 OVC070 FM250900 20008KT P6SM -SHRA SCT020 OVC035
KIDA
(42.9 nm NE from KPIH)
241720Z 2418/2518 21020G30KT P6SM VCSH SCT030 BKN060 TEMPO 2418/2420 P6SM -RA BKN030 FM250300 19010KT P6SM VCSH BKN050 OVC070 FM251000 VRB05KT P6SM -SHRA SCT020 OVC035
  Airport Weather Conditions for U02

Current weather conditions are
not available for U02


The nearest NOAA weather station
is at PIH, (21 nm SW from U02)
  
 Current Weather at PIH
54° F
Mostly Cloudy
Southwest winds at 11.5 mph
PIH NOAA Radar

Pressure: 29.92 in
Humidity: 49%
Wind: Southwest at 11.5 MPH (10 KT)
Dew Point: 35.1°F
Visibility: 10.00 mi


Airport Weather Forecast for U02

Translated METAR and TAF for KPIH
Translated METAR for KPIH (0231 UTC 25 April 2014)
found at http://aviationweather.gov/adds/metars/
 
METAR text: KPIH 250153Z 22010KT 10SM BKN095 12/02 A2992 RMK AO2 SLP114 T01220017
Conditions at: KPIH (POCATELLO , ID, US) observed 0153 UTC 25 April 2014
Temperature: 12.2°C (54°F)
Dewpoint: 1.7°C (35°F) [RH = 49%]
Pressure (altimeter): 29.92 inches Hg (1013.3 mb)
[Sea-level pressure: 1011.4 mb]
Winds: from the SW (220 degrees) at 12 MPH (10 knots; 5.2 m/s)
Visibility: 10 or more miles (16+ km)
Ceiling: 9500 feet AGL
Clouds: broken clouds at 9500 feet AGL
Weather: no significant weather observed at this time
Translated TAF for KPIH
Forecast for: KPIH (POCATELLO , ID, US)
TAF Text: KPIH 242320Z 2500/2524 24011KT P6SM VCSH OVC070
Forecast period: 0000 to 0900 UTC 25 April 2014
Forecast type: FROM: standard forecast or significant change
Winds: from the WSW (240 degrees) at 13 MPH (11 knots; 5.7 m/s)
Visibility: 6 or more miles (10+ km)
Ceiling: 7000 feet AGL
Clouds: overcast cloud deck at 7000 feet AGL
Weather: VCSH  (showers in vicinity)
TAF Text: TEMPO 2502/2506 -SHRA OVC050
Forecast period: 0200 to 0600 UTC 25 April 2014
Forecast type: TEMPORARY: The following changes expected for less than half the time period
Ceiling: 5000 feet AGL
Clouds: overcast cloud deck at 5000 feet AGL
Weather: -SHRA  (light rain showers)
TAF Text: FM250900 20008KT P6SM -SHRA SCT020 OVC035
Forecast period: 0900 to 1800 UTC 25 April 2014
Forecast type: FROM: standard forecast or significant change
Winds: from the SSW (200 degrees) at 9 MPH (8 knots; 4.2 m/s)
Visibility: 6 or more miles (10+ km)
Ceiling: 3500 feet AGL
Clouds: scattered clouds at 2000 feet AGL
overcast cloud deck at 3500 feet AGL
Weather: -SHRA  (light rain showers)
TAF Text: FM251800 22010G20KT P6SM -RA OVC035
Forecast period: 1800 UTC 25 April 2014 to 0000 UTC 26 April 2014
Forecast type: FROM: standard forecast or significant change
Winds: from the SW (220 degrees) at 12 MPH (10 knots; 5.2 m/s)
gusting to 23 MPH (20 knots; 10.4 m/s)
Visibility: 6 or more miles (10+ km)
Ceiling: 3500 feet AGL
Clouds: overcast cloud deck at 3500 feet AGL
Weather: -RA  (light rain)

Find All Airport Services Find A Hotel Find A Rental Car Find A Golf Course Find A Restaurant $100 Hamburger



FBO's on the Field
FBO Company Facility Photos Services Transportation Aviation Fuel Prices: Prices include tax
Catering Weather Repair Courtesy Rental Type 100LL JetA JetA+ MOGAS 8087
 
Add another FBO Facility Photos Catering Weather Repair Courtesy Rental Type 100LL JetA JetA+ MOGAS 8087
Services Transportation Aviation Fuel Prices: Prices include tax
There are no FBO's currently reporting fuel at U02. List your FBO now


GlobalAir.com Airport Resource Center model-print
model-print
model-print
model-print